Time;durP1;ratioP1;P1;durP2;ratioP2;P2;SDS_P1;SDS_P2;PMS_P1;PMS_P2;Temp;Humidity;BMP_temperature;BMP_pressure;BME280_temperature;BME280_humidity;BME280_pressure;Samples;Min_cycle;Max_cycle;Signal;HPM_P1;HPM_P2
2023/01/11 00:02:21;;;;;;;5.13;0.93;;;;;;;;;;5092372;28;20066;-86
2023/01/11 00:04:48;;;;;;;9.10;1.55;;;;;;;;;;5092516;28;20082;-86
2023/01/11 00:07:16;;;;;;;2.25;0.80;;;;;;;;;;5092553;28;20481;-89
2023/01/11 00:09:46;;;;;;;2.55;1.00;;;;;;;;;;5092340;28;20052;-85
2023/01/11 00:12:14;;;;;;;8.55;1.38;;;;;;;;;;5093313;28;20125;-86
2023/01/11 00:14:41;;;;;;;3.47;0.90;;;;;;;;;;5092330;28;20468;-86
2023/01/11 00:17:08;;;;;;;3.88;1.35;;;;;;;;;;5091697;28;20470;-85
2023/01/11 00:19:35;;;;;;;6.25;1.10;;;;;;;;;;5092156;28;20059;-87
2023/01/11 00:22:02;;;;;;;2.78;0.98;;;;;;;;;;5092067;28;20074;-86
2023/01/11 00:24:30;;;;;;;2.75;1.40;;;;;;;;;;5092248;28;20054;-89
2023/01/11 00:26:57;;;;;;;2.53;0.88;;;;;;;;;;5094654;28;20044;-89
2023/01/11 00:29:24;;;;;;;5.53;1.42;;;;;;;;;;5095354;28;20069;-87
2023/01/11 00:31:52;;;;;;;4.50;1.23;;;;;;;;;;5096288;28;20068;-87
2023/01/11 00:34:19;;;;;;;6.18;1.65;;;;;;;;;;5095999;28;20050;-86
2023/01/11 00:36:46;;;;;;;3.35;1.20;;;;;;;;;;5096275;28;20048;-86
2023/01/11 00:39:14;;;;;;;3.45;1.38;;;;;;;;;;5096228;28;20051;-87
2023/01/11 00:50:00;;;;;;;6.10;1.27;;;;;;;;;;5096831;28;20044;-87
2023/01/11 00:52:27;;;;;;;4.85;1.13;;;;;;;;;;5095902;28;20044;-87
2023/01/11 00:54:54;;;;;;;5.10;1.10;;;;;;;;;;5095872;28;20411;-86
2023/01/11 00:57:24;;;;;;;1.83;1.10;;;;;;;;;;5095830;28;20056;-86
2023/01/11 00:59:51;;;;;;;3.67;1.25;;;;;;;;;;5095626;28;20070;-87
2023/01/11 01:02:18;;;;;;;3.13;1.02;;;;;;;;;;5095517;28;20143;-87
2023/01/11 01:04:46;;;;;;;5.10;1.52;;;;;;;;;;5095576;28;20055;-86
2023/01/11 01:07:13;;;;;;;5.07;1.40;;;;;;;;;;5095222;28;20139;-86
2023/01/11 01:09:40;;;;;;;2.95;1.23;;;;;;;;;;5095478;28;20131;-86
2023/01/11 01:12:08;;;;;;;3.40;1.40;;;;;;;;;;5095468;28;20067;-85
2023/01/11 01:14:35;;;;;;;5.30;1.30;;;;;;;;;;5095493;28;20060;-90
2023/01/11 01:17:06;;;;;;;8.80;1.35;;;;;;;;;;5094526;28;20062;-87
2023/01/11 01:19:34;;;;;;;4.38;1.58;;;;;;;;;;5095243;28;20487;-87
2023/01/11 01:22:01;;;;;;;3.75;1.30;;;;;;;;;;5094886;28;20052;-89
2023/01/11 01:24:29;;;;;;;2.60;1.30;;;;;;;;;;5095245;28;20044;-86
2023/01/11 01:26:57;;;;;;;6.32;1.70;;;;;;;;;;5094992;28;20074;-87
2023/01/11 01:29:25;;;;;;;3.85;1.40;;;;;;;;;;5095047;28;20111;-86
2023/01/11 01:31:52;;;;;;;2.60;1.52;;;;;;;;;;5094612;28;20087;-86
2023/01/11 01:34:19;;;;;;;7.30;1.52;;;;;;;;;;5094915;28;20052;-86
2023/01/11 01:36:46;;;;;;;6.60;1.65;;;;;;;;;;5094523;28;20178;-86
2023/01/11 01:39:14;;;;;;;5.30;1.50;;;;;;;;;;5094087;28;20043;-86
2023/01/11 01:41:41;;;;;;;4.32;1.65;;;;;;;;;;5094776;28;20044;-86
2023/01/11 01:44:27;;;;;;;4.32;1.65;;;;;;;;;;5094656;28;20051;-87
2023/01/11 01:46:54;;;;;;;6.32;1.70;;;;;;;;;;5094721;28;20133;-86
2023/01/11 01:49:21;;;;;;;4.85;1.95;;;;;;;;;;5094565;28;20059;-87
2023/01/11 01:51:51;;;;;;;8.45;1.88;;;;;;;;;;5094652;28;20070;-87
2023/01/11 01:54:20;;;;;;;3.58;1.67;;;;;;;;;;5094735;28;20078;-85
2023/01/11 01:56:49;;;;;;;3.65;1.73;;;;;;;;;;5094258;28;20484;-86
2023/01/11 01:59:19;;;;;;;5.78;2.08;;;;;;;;;;5094331;28;20055;-85
2023/01/11 02:01:47;;;;;;;6.00;1.80;;;;;;;;;;5094717;28;20055;-85
2023/01/11 02:04:29;;;;;;;6.38;1.67;;;;;;;;;;5094434;28;20040;-86
2023/01/11 02:06:58;;;;;;;5.95;1.80;;;;;;;;;;5093706;28;20506;-86
2023/01/11 02:09:34;;;;;;;3.50;1.55;;;;;;;;;;5094033;28;20481;-86
2023/01/11 02:12:02;;;;;;;4.55;1.50;;;;;;;;;;5093885;28;20052;-86
2023/01/11 02:14:31;;;;;;;5.03;1.83;;;;;;;;;;5093829;28;20051;-86
2023/01/11 02:16:58;;;;;;;4.32;1.55;;;;;;;;;;5093712;28;20059;-86
2023/01/11 02:19:32;;;;;;;7.88;1.98;;;;;;;;;;5093914;28;20047;-86
2023/01/11 02:22:12;;;;;;;4.82;1.63;;;;;;;;;;5093780;28;20059;-86
2023/01/11 02:24:40;;;;;;;4.32;1.65;;;;;;;;;;5093952;28;20044;-87
2023/01/11 02:27:15;;;;;;;5.15;1.67;;;;;;;;;;5093984;28;20048;-86
2023/01/11 02:29:48;;;;;;;5.82;1.83;;;;;;;;;;5093906;28;20515;-85
2023/01/11 02:32:31;;;;;;;2.72;1.40;;;;;;;;;;5093603;28;20102;-87
2023/01/11 02:35:08;;;;;;;5.15;1.67;;;;;;;;;;5093628;28;20054;-86
2023/01/11 02:38:00;;;;;;;6.63;1.73;;;;;;;;;;5093732;28;20055;-86
2023/01/11 02:40:35;;;;;;;4.22;1.67;;;;;;;;;;5093619;28;20091;-87
2023/01/11 02:46:12;;;;;;;4.72;2.15;;;;;;;;;;5094489;28;20052;-87
2023/01/11 02:48:40;;;;;;;3.60;1.90;;;;;;;;;;5093244;28;20094;-86
2023/01/11 02:51:19;;;;;;;4.75;2.00;;;;;;;;;;5093079;28;20048;-86
2023/01/11 02:54:04;;;;;;;4.63;1.70;;;;;;;;;;5093612;28;20050;-87
2023/01/11 02:56:33;;;;;;;6.47;1.40;;;;;;;;;;5093473;28;20044;-86
2023/01/11 02:59:01;;;;;;;6.78;1.83;;;;;;;;;;5093191;28;20058;-86
2023/01/11 03:01:29;;;;;;;1.88;1.30;;;;;;;;;;5093052;28;20468;-85
2023/01/11 03:03:56;;;;;;;3.60;1.50;;;;;;;;;;5093013;28;20051;-85
2023/01/11 03:06:25;;;;;;;3.35;1.35;;;;;;;;;;5093246;28;20071;-86
2023/01/11 03:09:09;;;;;;;3.35;1.50;;;;;;;;;;5093371;28;20143;-86
2023/01/11 03:14:28;;;;;;;3.38;1.40;;;;;;;;;;5094196;28;20054;-85
2023/01/11 03:17:13;;;;;;;5.28;1.50;;;;;;;;;;5092768;28;20067;-86
2023/01/11 03:19:48;;;;;;;3.25;1.48;;;;;;;;;;5093085;28;20097;-86
2023/01/11 03:22:15;;;;;;;5.13;1.73;;;;;;;;;;5092942;28;20102;-85
2023/01/11 03:24:47;;;;;;;5.53;1.50;;;;;;;;;;5092881;28;20587;-86
2023/01/11 03:27:21;;;;;;;3.60;1.60;;;;;;;;;;5092964;28;20093;-87
2023/01/11 03:29:49;;;;;;;1.92;1.30;;;;;;;;;;5092599;28;20492;-86
2023/01/11 03:32:28;;;;;;;2.90;1.42;;;;;;;;;;5092740;28;20494;-86
2023/01/11 03:35:03;;;;;;;3.55;1.23;;;;;;;;;;5092495;28;20492;-86
2023/01/11 03:37:34;;;;;;;3.17;1.25;;;;;;;;;;5092656;28;20044;-86
2023/01/11 03:40:07;;;;;;;1.92;1.35;;;;;;;;;;5092561;28;20043;-86
2023/01/11 03:43:09;;;;;;;4.95;1.42;;;;;;;;;;5092730;28;20055;-86
2023/01/11 03:45:22;;;;;;;2.20;1.13;;;;;;;;;;5093200;28;20052;-88
2023/01/11 03:47:52;;;;;;;2.78;1.42;;;;;;;;;;5092891;28;20047;-86
2023/01/11 03:50:19;;;;;;;3.80;1.63;;;;;;;;;;5092508;28;20059;-87
2023/01/11 03:52:46;;;;;;;4.75;1.40;;;;;;;;;;5092713;28;20051;-87
2023/01/11 03:55:16;;;;;;;3.97;1.50;;;;;;;;;;5092590;28;20067;-87
2023/01/11 03:57:50;;;;;;;2.80;1.70;;;;;;;;;;5092599;28;20073;-86
2023/01/11 04:00:21;;;;;;;3.13;1.40;;;;;;;;;;5092492;28;20055;-85
2023/01/11 04:02:48;;;;;;;5.20;1.42;;;;;;;;;;5097974;28;20143;-86
2023/01/11 04:05:15;;;;;;;3.00;1.55;;;;;;;;;;5096785;28;20072;-86
2023/01/11 04:07:42;;;;;;;1.92;1.48;;;;;;;;;;5096738;28;20048;-85
2023/01/11 04:10:10;;;;;;;2.17;1.40;;;;;;;;;;5096356;28;20490;-86
2023/01/11 04:12:37;;;;;;;2.80;1.55;;;;;;;;;;5096682;28;20048;-86
2023/01/11 04:15:04;;;;;;;1.70;1.50;;;;;;;;;;5096492;28;20044;-86
2023/01/11 04:17:32;;;;;;;4.10;1.42;;;;;;;;;;5096175;28;20517;-85
2023/01/11 04:19:59;;;;;;;2.05;1.10;;;;;;;;;;5096541;28;20052;-86
2023/01/11 04:22:26;;;;;;;4.60;1.60;;;;;;;;;;5096240;28;20453;-87
2023/01/11 04:24:53;;;;;;;3.97;1.50;;;;;;;;;;5096011;28;20044;-87
2023/01/11 04:27:20;;;;;;;2.00;1.20;;;;;;;;;;5096222;28;20056;-85
2023/01/11 04:29:47;;;;;;;2.58;1.52;;;;;;;;;;5096012;28;20044;-87
2023/01/11 04:32:15;;;;;;;2.38;1.20;;;;;;;;;;5095997;28;20399;-86
2023/01/11 04:34:42;;;;;;;4.45;1.23;;;;;;;;;;5096135;28;20048;-86
2023/01/11 04:37:10;;;;;;;4.25;1.25;;;;;;;;;;5095616;28;20044;-86
2023/01/11 04:39:38;;;;;;;2.55;0.95;;;;;;;;;;5095853;28;20139;-86
2023/01/11 04:42:17;;;;;;;1.02;0.85;;;;;;;;;;5096178;28;20067;-87
2023/01/11 04:44:48;;;;;;;1.60;0.77;;;;;;;;;;5096036;28;20050;-87
2023/01/11 04:47:16;;;;;;;1.98;0.73;;;;;;;;;;5095902;28;20058;-86
2023/01/11 04:49:43;;;;;;;1.23;0.55;;;;;;;;;;5095650;28;20056;-86
2023/01/11 04:52:11;;;;;;;1.63;0.88;;;;;;;;;;5095649;28;20047;-86
2023/01/11 04:54:38;;;;;;;1.35;0.70;;;;;;;;;;5095847;28;20447;-86
2023/01/11 04:57:06;;;;;;;0.70;0.70;;;;;;;;;;5095399;28;20051;-86
2023/01/11 04:59:33;;;;;;;1.80;0.73;;;;;;;;;;5095753;28;20048;-86
2023/01/11 05:02:00;;;;;;;2.65;0.70;;;;;;;;;;5095343;28;20408;-86
2023/01/11 05:04:28;;;;;;;0.85;0.70;;;;;;;;;;5095448;28;20503;-86
2023/01/11 05:06:55;;;;;;;1.75;0.90;;;;;;;;;;5095613;28;20059;-87
2023/01/11 05:09:22;;;;;;;1.52;0.85;;;;;;;;;;5095438;28;20052;-86
2023/01/11 05:11:49;;;;;;;1.10;0.60;;;;;;;;;;5095271;28;20044;-87
2023/01/11 05:14:17;;;;;;;0.95;0.60;;;;;;;;;;5095454;28;20052;-86
2023/01/11 05:16:44;;;;;;;0.70;0.43;;;;;;;;;;5094967;28;20112;-86
2023/01/11 05:19:12;;;;;;;1.13;0.73;;;;;;;;;;5095147;28;20043;-86
2023/01/11 05:21:41;;;;;;;0.95;0.60;;;;;;;;;;5095171;28;20335;-86
2023/01/11 05:24:10;;;;;;;1.02;0.50;;;;;;;;;;5095139;28;20048;-86
2023/01/11 05:26:39;;;;;;;1.17;0.60;;;;;;;;;;5094968;28;20052;-86
2023/01/11 05:29:07;;;;;;;1.23;0.50;;;;;;;;;;5095985;28;20048;-86
2023/01/11 05:31:35;;;;;;;0.77;0.50;;;;;;;;;;5094831;28;20058;-87
2023/01/11 05:34:02;;;;;;;1.52;0.70;;;;;;;;;;5094596;28;20466;-87
2023/01/11 05:36:30;;;;;;;0.85;0.50;;;;;;;;;;5094677;28;20055;-87
2023/01/11 05:38:57;;;;;;;1.38;0.88;;;;;;;;;;5095997;28;20048;-87
2023/01/11 05:41:25;;;;;;;0.73;0.60;;;;;;;;;;5095118;28;20105;-87
2023/01/11 05:46:40;;;;;;;2.67;0.63;;;;;;;;;;5095652;28;20048;-86
2023/01/11 05:49:08;;;;;;;1.35;0.57;;;;;;;;;;5094912;28;20466;-87
2023/01/11 05:51:36;;;;;;;0.75;0.65;;;;;;;;;;5095458;28;20048;-86
2023/01/11 05:54:05;;;;;;;1.52;0.40;;;;;;;;;;5094260;28;20071;-86
2023/01/11 05:56:32;;;;;;;2.47;0.80;;;;;;;;;;5094484;28;20477;-86
2023/01/11 05:58:59;;;;;;;0.50;0.35;;;;;;;;;;5094528;28;20404;-87
2023/01/11 06:01:26;;;;;;;0.65;0.50;;;;;;;;;;5095251;28;20052;-86
2023/01/11 06:03:53;;;;;;;0.45;0.30;;;;;;;;;;5093861;28;20044;-86
2023/01/11 06:06:21;;;;;;;0.68;0.45;;;;;;;;;;5094389;28;20143;-90
2023/01/11 06:08:49;;;;;;;1.77;1.60;;;;;;;;;;5093990;28;20078;-86
2023/01/11 06:11:16;;;;;;;0.45;0.45;;;;;;;;;;5095018;28;20054;-86
2023/01/11 06:13:43;;;;;;;1.65;0.32;;;;;;;;;;5094010;28;20094;-85
2023/01/11 06:16:18;;;;;;;1.17;0.38;;;;;;;;;;5095103;28;20419;-86
2023/01/11 06:18:47;;;;;;;1.00;0.65;;;;;;;;;;5094236;28;20081;-86
2023/01/11 06:21:15;;;;;;;0.30;0.30;;;;;;;;;;5093707;28;20044;-86
2023/01/11 06:23:44;;;;;;;1.10;0.50;;;;;;;;;;5093333;28;20048;-86
2023/01/11 06:26:12;;;;;;;0.55;0.30;;;;;;;;;;5093707;28;20040;-87
2023/01/11 06:28:40;;;;;;;0.40;0.40;;;;;;;;;;5093852;28;20058;-86
2023/01/11 06:31:07;;;;;;;0.63;0.47;;;;;;;;;;5093785;28;20466;-86
2023/01/11 06:33:35;;;;;;;0.90;0.50;;;;;;;;;;5093929;28;20070;-86
2023/01/11 06:36:04;;;;;;;0.55;0.55;;;;;;;;;;5094453;28;20044;-87
2023/01/11 06:38:31;;;;;;;3.08;2.35;;;;;;;;;;5094884;28;20502;-86
2023/01/11 06:40:59;;;;;;;1.42;0.77;;;;;;;;;;5093603;28;20054;-86
2023/01/11 06:43:27;;;;;;;7.45;4.28;;;;;;;;;;5094757;28;20044;-86
2023/01/11 06:45:57;;;;;;;3.13;2.03;;;;;;;;;;5092878;28;20138;-86
2023/01/11 06:48:25;;;;;;;0.60;0.60;;;;;;;;;;5093545;28;20048;-86
2023/01/11 06:50:53;;;;;;;3.72;1.63;;;;;;;;;;5093229;28;20052;-86
2023/01/11 06:53:21;;;;;;;6.40;2.97;;;;;;;;;;5094579;28;20048;-86
2023/01/11 06:55:49;;;;;;;5.47;3.15;;;;;;;;;;5094093;28;20488;-84
2023/01/11 06:58:17;;;;;;;1.38;0.80;;;;;;;;;;5093181;28;20131;-86
2023/01/11 07:00:44;;;;;;;0.65;0.65;;;;;;;;;;5093384;28;20052;-86
2023/01/11 07:03:14;;;;;;;0.22;0.22;;;;;;;;;;5094208;28;20048;-86
2023/01/11 07:05:42;;;;;;;0.63;0.57;;;;;;;;;;5093301;28;20662;-87
2023/01/11 07:08:10;;;;;;;0.75;0.75;;;;;;;;;;5093937;28;20131;-86
2023/01/11 07:10:37;;;;;;;1.60;0.63;;;;;;;;;;5093151;28;20126;-86
2023/01/11 07:13:04;;;;;;;0.43;0.43;;;;;;;;;;5093055;28;20403;-87
2023/01/11 07:15:32;;;;;;;0.30;0.30;;;;;;;;;;5092706;28;20050;-87
2023/01/11 07:17:59;;;;;;;1.05;0.20;;;;;;;;;;5093667;28;20485;-87
2023/01/11 07:20:27;;;;;;;0.30;0.30;;;;;;;;;;5092949;28;20058;-87
2023/01/11 07:22:58;;;;;;;1.45;0.22;;;;;;;;;;5093107;28;20055;-86
2023/01/11 07:25:26;;;;;;;0.20;0.20;;;;;;;;;;5092813;28;20135;-86
2023/01/11 07:28:01;;;;;;;1.13;0.30;;;;;;;;;;5092665;28;20130;-87
2023/01/11 07:30:30;;;;;;;0.73;0.25;;;;;;;;;;5092557;28;20048;-87
2023/01/11 07:32:57;;;;;;;0.30;0.30;;;;;;;;;;5093394;28;20052;-87
2023/01/11 07:35:25;;;;;;;1.17;0.38;;;;;;;;;;5091666;28;20309;-87
2023/01/11 07:37:55;;;;;;;1.38;0.73;;;;;;;;;;5093212;28;20051;-87
2023/01/11 07:40:22;;;;;;;0.20;0.20;;;;;;;;;;5092415;28;20610;-86
2023/01/11 07:45:56;;;;;;;0.32;0.32;;;;;;;;;;5051064;28;20057;-86
2023/01/11 07:48:25;;;;;;;0.28;0.28;;;;;;;;;;5034422;28;20048;-86
2023/01/11 07:50:53;;;;;;;1.20;0.28;;;;;;;;;;5072157;28;20126;-86
2023/01/11 07:53:20;;;;;;;1.48;0.22;;;;;;;;;;5092244;28;20052;-86
2023/01/11 07:55:47;;;;;;;0.32;0.32;;;;;;;;;;5093280;28;20052;-85
2023/01/11 07:58:15;;;;;;;0.28;0.28;;;;;;;;;;5093688;28;20048;-86
2023/01/11 08:00:43;;;;;;;0.20;0.20;;;;;;;;;;5092506;28;20050;-86
2023/01/11 08:03:10;;;;;;;0.30;0.30;;;;;;;;;;5093927;28;20058;-87
2023/01/11 08:05:38;;;;;;;0.55;0.30;;;;;;;;;;5092308;28;20054;-88
2023/01/11 08:08:05;;;;;;;0.20;0.20;;;;;;;;;;5091968;28;20516;-86
2023/01/11 08:10:33;;;;;;;0.60;0.60;;;;;;;;;;5092696;28;20055;-87
2023/01/11 08:15:46;;;;;;;0.25;0.25;;;;;;;;;;5092815;28;20139;-87
2023/01/11 08:18:13;;;;;;;0.40;0.40;;;;;;;;;;5092238;28;20055;-87
2023/01/11 08:20:40;;;;;;;0.30;0.30;;;;;;;;;;5092677;28;20058;-87
2023/01/11 08:23:09;;;;;;;0.30;0.30;;;;;;;;;;5093684;28;20052;-87
2023/01/11 08:25:37;;;;;;;0.30;0.30;;;;;;;;;;5092233;28;20048;-85
2023/01/11 08:28:05;;;;;;;0.13;0.13;;;;;;;;;;5092418;28;20048;-87
2023/01/11 08:30:32;;;;;;;0.70;0.70;;;;;;;;;;5092571;28;20158;-86
2023/01/11 08:33:00;;;;;;;0.50;0.50;;;;;;;;;;5092260;28;20139;-87
2023/01/11 08:35:28;;;;;;;0.70;0.70;;;;;;;;;;5092476;28;20153;-87
2023/01/11 08:37:56;;;;;;;0.30;0.30;;;;;;;;;;5092229;28;20059;-86
2023/01/11 08:40:26;;;;;;;0.17;0.17;;;;;;;;;;5091943;28;20488;-86
2023/01/11 08:42:55;;;;;;;0.30;0.30;;;;;;;;;;5091926;28;20506;-86
2023/01/11 08:45:22;;;;;;;0.10;0.10;;;;;;;;;;5092048;28;20062;-88
2023/01/11 08:47:50;;;;;;;0.10;0.10;;;;;;;;;;5094196;28;20100;-87
2023/01/11 08:50:18;;;;;;;0.00;0.00;;;;;;;;;;5095658;28;20055;-86
2023/01/11 08:52:46;;;;;;;0.32;0.10;;;;;;;;;;5095647;28;20511;-89
2023/01/11 08:55:14;;;;;;;0.10;0.03;;;;;;;;;;5095800;28;20138;-85
2023/01/11 08:57:41;;;;;;;0.00;0.00;;;;;;;;;;5096647;28;20048;-87
2023/01/11 09:00:09;;;;;;;0.03;0.03;;;;;;;;;;5099769;28;20124;-85
2023/01/11 09:02:36;;;;;;;0.10;0.10;;;;;;;;;;5096271;28;20173;-86
2023/01/11 09:05:06;;;;;;;0.85;0.10;;;;;;;;;;5095811;28;20082;-85
2023/01/11 09:07:33;;;;;;;0.20;0.20;;;;;;;;;;5095417;28;20403;-87
2023/01/11 09:10:00;;;;;;;0.10;0.10;;;;;;;;;;5095243;28;20052;-86
2023/01/11 09:12:27;;;;;;;1.27;0.10;;;;;;;;;;5095302;28;20397;-86
2023/01/11 09:14:55;;;;;;;0.10;0.10;;;;;;;;;;5095459;28;20132;-86
2023/01/11 09:17:22;;;;;;;0.30;0.20;;;;;;;;;;5094160;28;20500;-87
2023/01/11 09:19:49;;;;;;;1.13;0.30;;;;;;;;;;5094885;28;20047;-87
2023/01/11 09:22:17;;;;;;;2.42;2.22;;;;;;;;;;5094870;28;20052;-87
2023/01/11 09:24:44;;;;;;;0.40;0.40;;;;;;;;;;5095070;28;20054;-86
2023/01/11 09:27:12;;;;;;;0.70;0.20;;;;;;;;;;5095168;28;20052;-87
2023/01/11 09:29:39;;;;;;;0.93;0.10;;;;;;;;;;5095047;28;20043;-87
2023/01/11 09:32:06;;;;;;;0.10;0.10;;;;;;;;;;5095050;28;20076;-86
2023/01/11 09:34:33;;;;;;;0.77;0.77;;;;;;;;;;5095088;28;20130;-86
2023/01/11 09:37:02;;;;;;;0.45;0.40;;;;;;;;;;5094197;28;20138;-87
2023/01/11 09:39:30;;;;;;;1.13;0.60;;;;;;;;;;5094463;28;20131;-87
2023/01/11 09:42:07;;;;;;;0.10;0.10;;;;;;;;;;5094770;28;20522;-87
2023/01/11 09:44:35;;;;;;;0.68;0.60;;;;;;;;;;5094804;28;20048;-86
2023/01/11 09:47:12;;;;;;;0.00;0.00;;;;;;;;;;5094618;28;20097;-87
2023/01/11 09:49:42;;;;;;;0.10;0.03;;;;;;;;;;5094794;28;20044;-87
2023/01/11 09:52:22;;;;;;;0.10;0.10;;;;;;;;;;5094585;28;20134;-87
2023/01/11 09:54:50;;;;;;;0.10;0.10;;;;;;;;;;5094492;28;20086;-87
2023/01/11 09:57:25;;;;;;;1.25;0.10;;;;;;;;;;5094453;28;20048;-87
2023/01/11 10:00:16;;;;;;;0.10;0.10;;;;;;;;;;5093856;28;20142;-87
2023/01/11 10:02:55;;;;;;;0.00;0.00;;;;;;;;;;5094260;28;20135;-87
2023/01/11 10:05:50;;;;;;;0.10;0.10;;;;;;;;;;5093563;28;20044;-88
2023/01/11 10:08:26;;;;;;;0.25;0.10;;;;;;;;;;5092876;28;20472;-86
2023/01/11 10:11:23;;;;;;;0.05;0.05;;;;;;;;;;5092413;28;20055;-85
2023/01/11 10:14:26;;;;;;;0.30;0.10;;;;;;;;;;5094273;28;20056;-87
2023/01/11 10:17:23;;;;;;;0.10;0.10;;;;;;;;;;5092997;28;20059;-86
2023/01/11 10:20:19;;;;;;;0.05;0.05;;;;;;;;;;5092049;28;20044;-88
2023/01/11 10:22:48;;;;;;;0.38;0.38;;;;;;;;;;5093639;28;20048;-88
2023/01/11 10:25:17;;;;;;;0.10;0.10;;;;;;;;;;5092893;28;20480;-86
2023/01/11 10:27:52;;;;;;;0.40;0.20;;;;;;;;;;5093582;28;20055;-87
2023/01/11 10:30:40;;;;;;;0.00;0.00;;;;;;;;;;5093650;28;20503;-87
2023/01/11 10:33:51;;;;;;;0.15;0.03;;;;;;;;;;5089711;28;20071;-86
2023/01/11 10:42:01;;;;;;;0.10;0.10;;;;;;;;;;5094806;28;20123;-87
2023/01/11 10:44:40;;;;;;;0.43;0.00;;;;;;;;;;5093654;28;20052;-87
2023/01/11 10:47:12;;;;;;;1.85;0.03;;;;;;;;;;5093768;28;20040;-87
2023/01/11 10:49:45;;;;;;;0.63;0.00;;;;;;;;;;5093640;28;20083;-87
2023/01/11 10:52:28;;;;;;;0.10;0.10;;;;;;;;;;5093767;28;20556;-86
2023/01/11 10:54:57;;;;;;;0.13;0.00;;;;;;;;;;5093411;28;20070;-87
2023/01/11 10:57:45;;;;;;;0.08;0.08;;;;;;;;;;5093328;28;20508;-87
2023/01/11 11:00:39;;;;;;;0.28;0.25;;;;;;;;;;5093588;28;20048;-87
2023/01/11 11:03:15;;;;;;;0.20;0.20;;;;;;;;;;5092720;28;20067;-87
2023/01/11 11:06:00;;;;;;;2.25;0.40;;;;;;;;;;5093400;28;20056;-87
2023/01/11 11:08:35;;;;;;;0.30;0.30;;;;;;;;;;5093397;28;20044;-87
2023/01/11 11:11:07;;;;;;;0.20;0.20;;;;;;;;;;5093298;28;20044;-87
2023/01/11 11:13:43;;;;;;;0.20;0.17;;;;;;;;;;5092974;28;20051;-88
2023/01/11 11:16:19;;;;;;;0.13;0.13;;;;;;;;;;5092891;28;20109;-87
2023/01/11 11:18:46;;;;;;;0.43;0.40;;;;;;;;;;5093275;28;20040;-88
2023/01/11 11:21:25;;;;;;;0.10;0.10;;;;;;;;;;5092621;28;20546;-86
2023/01/11 11:23:58;;;;;;;0.47;0.17;;;;;;;;;;5092838;28;20062;-86
2023/01/11 11:26:28;;;;;;;1.35;0.20;;;;;;;;;;5092904;28;20052;-87
2023/01/11 11:29:00;;;;;;;0.10;0.10;;;;;;;;;;5093037;28;20055;-86
2023/01/11 11:31:28;;;;;;;0.05;0.05;;;;;;;;;;5093024;28;20044;-87
2023/01/11 11:33:55;;;;;;;0.28;0.20;;;;;;;;;;5092486;28;20051;-86
2023/01/11 11:36:24;;;;;;;0.20;0.20;;;;;;;;;;5092815;28;20051;-87
2023/01/11 11:39:11;;;;;;;1.77;0.30;;;;;;;;;;5092981;28;20143;-87
2023/01/11 11:41:47;;;;;;;0.17;0.17;;;;;;;;;;5092657;28;20044;-86
2023/01/11 11:44:16;;;;;;;0.10;0.10;;;;;;;;;;5092766;28;20495;-88
2023/01/11 11:46:56;;;;;;;1.85;0.22;;;;;;;;;;5092477;28;20052;-87
2023/01/11 11:49:23;;;;;;;0.10;0.10;;;;;;;;;;5092744;28;20076;-86
2023/01/11 11:51:51;;;;;;;0.22;0.20;;;;;;;;;;5092502;28;20047;-86
2023/01/11 11:54:34;;;;;;;0.20;0.20;;;;;;;;;;5092676;28;20407;-86
2023/01/11 11:57:14;;;;;;;0.10;0.10;;;;;;;;;;5092318;28;20062;-86
2023/01/11 11:59:48;;;;;;;0.30;0.10;;;;;;;;;;5092650;28;20427;-86
2023/01/11 12:02:25;;;;;;;0.30;0.13;;;;;;;;;;5092724;28;20048;-86
2023/01/11 12:04:53;;;;;;;1.35;0.35;;;;;;;;;;5092582;28;20048;-87
2023/01/11 12:07:22;;;;;;;0.40;0.40;;;;;;;;;;5092577;28;20075;-86
2023/01/11 12:09:55;;;;;;;1.92;1.25;;;;;;;;;;5093673;28;20140;-86
2023/01/11 12:12:22;;;;;;;1.52;1.42;;;;;;;;;;5092505;28;20075;-86
2023/01/11 12:15:18;;;;;;;2.43;1.53;;;;;;;;;;5092346;28;20048;-87
2023/01/11 12:17:46;;;;;;;1.27;0.20;;;;;;;;;;5092003;28;20320;-88
2023/01/11 12:20:22;;;;;;;0.10;0.10;;;;;;;;;;5092348;28;20048;-88
2023/01/11 12:22:50;;;;;;;0.40;0.15;;;;;;;;;;5094358;28;20419;-86
2023/01/11 12:25:17;;;;;;;0.20;0.20;;;;;;;;;;5096308;28;20386;-87
2023/01/11 12:27:54;;;;;;;0.40;0.15;;;;;;;;;;5096348;28;20134;-87
2023/01/11 12:30:24;;;;;;;0.20;0.20;;;;;;;;;;5096559;28;20408;-87
2023/01/11 12:32:58;;;;;;;0.20;0.20;;;;;;;;;;5095852;28;20059;-88
2023/01/11 12:35:28;;;;;;;0.08;0.08;;;;;;;;;;5096359;28;20048;-87
2023/01/11 12:38:08;;;;;;;0.20;0.20;;;;;;;;;;5096409;28;20048;-87
2023/01/11 12:40:39;;;;;;;0.20;0.20;;;;;;;;;;5096258;28;20066;-87
2023/01/11 12:43:25;;;;;;;0.20;0.20;;;;;;;;;;5096145;28;20044;-87
2023/01/11 12:45:58;;;;;;;0.60;0.10;;;;;;;;;;5096125;28;20146;-89
2023/01/11 12:48:31;;;;;;;0.25;0.22;;;;;;;;;;5095608;28;20484;-88
2023/01/11 12:51:12;;;;;;;0.15;0.15;;;;;;;;;;5095806;28;20048;-86
2023/01/11 12:53:54;;;;;;;0.10;0.10;;;;;;;;;;5095752;28;20476;-86
2023/01/11 12:56:35;;;;;;;0.20;0.20;;;;;;;;;;5095761;28;20070;-88
2023/01/11 12:59:18;;;;;;;0.22;0.22;;;;;;;;;;5095852;28;20519;-86
2023/01/11 13:02:04;;;;;;;0.10;0.10;;;;;;;;;;5095720;28;20060;-87
2023/01/11 13:04:40;;;;;;;0.20;0.05;;;;;;;;;;5095729;28;20067;-87
2023/01/11 13:07:15;;;;;;;0.40;0.20;;;;;;;;;;5095437;28;20062;-87
2023/01/11 13:10:01;;;;;;;2.20;0.10;;;;;;;;;;5095596;28;20056;-87
2023/01/11 13:12:37;;;;;;;1.35;0.30;;;;;;;;;;5095553;28;20048;-87
2023/01/11 13:15:04;;;;;;;0.47;0.10;;;;;;;;;;5095558;28;20400;-87
2023/01/11 13:17:34;;;;;;;0.55;0.32;;;;;;;;;;5095225;28;20055;-87
2023/01/11 13:20:08;;;;;;;0.20;0.10;;;;;;;;;;5095322;28;20062;-87
2023/01/11 13:22:38;;;;;;;1.48;1.38;;;;;;;;;;5095338;28;20071;-87
2023/01/11 13:25:13;;;;;;;1.77;1.67;;;;;;;;;;5095294;28;20075;-87
2023/01/11 13:27:40;;;;;;;1.63;1.52;;;;;;;;;;5095131;28;20048;-87
2023/01/11 13:30:12;;;;;;;0.88;0.60;;;;;;;;;;5095120;28;20048;-87
2023/01/11 13:32:42;;;;;;;0.57;0.57;;;;;;;;;;5094907;28;20048;-88
2023/01/11 13:35:21;;;;;;;0.32;0.30;;;;;;;;;;5095084;28;20056;-88
2023/01/11 13:37:58;;;;;;;0.30;0.30;;;;;;;;;;5096178;28;20048;-87
2023/01/11 13:40:32;;;;;;;1.15;0.60;;;;;;;;;;5095309;28;20512;-87
2023/01/11 13:43:04;;;;;;;1.30;1.30;;;;;;;;;;5095869;28;20155;-87
2023/01/11 13:45:37;;;;;;;0.60;0.60;;;;;;;;;;5095087;28;20056;-87
2023/01/11 13:48:15;;;;;;;0.20;0.20;;;;;;;;;;5095010;28;20419;-87
2023/01/11 13:51:04;;;;;;;0.60;0.40;;;;;;;;;;5095165;28;20043;-87
2023/01/11 13:53:35;;;;;;;0.20;0.20;;;;;;;;;;5094606;28;20131;-86
2023/01/11 13:56:07;;;;;;;0.40;0.40;;;;;;;;;;5094689;28;20048;-87
2023/01/11 13:58:53;;;;;;;0.35;0.35;;;;;;;;;;5094747;28;20055;-87
2023/01/11 14:01:26;;;;;;;0.25;0.25;;;;;;;;;;5094897;28;20540;-87
2023/01/11 14:03:56;;;;;;;0.95;0.70;;;;;;;;;;5094505;28;20044;-88
2023/01/11 14:06:41;;;;;;;0.65;0.50;;;;;;;;;;5094481;28;20055;-87
2023/01/11 14:09:27;;;;;;;4.05;0.73;;;;;;;;;;5094441;28;20048;-87
2023/01/11 14:12:07;;;;;;;1.17;0.40;;;;;;;;;;5094481;28;20127;-87
2023/01/11 14:14:41;;;;;;;1.10;0.50;;;;;;;;;;5094072;28;20048;-87
2023/01/11 14:17:27;;;;;;;1.40;0.40;;;;;;;;;;5093679;28;20127;-87
2023/01/11 14:20:09;;;;;;;1.08;0.50;;;;;;;;;;5093927;28;20052;-87
2023/01/11 14:22:43;;;;;;;2.50;0.40;;;;;;;;;;5093041;28;20496;-88
2023/01/11 14:25:18;;;;;;;1.57;0.33;;;;;;;;;;5094019;28;20048;-87
2023/01/11 14:27:57;;;;;;;0.35;0.32;;;;;;;;;;5094122;28;20056;-87
2023/01/11 14:30:30;;;;;;;1.23;1.10;;;;;;;;;;5094268;28;20051;-87
2023/01/11 14:33:04;;;;;;;0.30;0.20;;;;;;;;;;5094059;28;20404;-87
2023/01/11 14:35:31;;;;;;;;;;;;;;;;;;5094245;28;20075;-87
2023/01/11 14:38:11;;;;;;;2.22;0.68;;;;;;;;;;5094137;28;19927;-87
2023/01/11 14:40:44;;;;;;;1.00;1.00;;;;;;;;;;5093855;28;20131;-87
2023/01/11 14:43:11;;;;;;;1.65;0.95;;;;;;;;;;5093953;28;20386;-87
2023/01/11 14:45:48;;;;;;;0.80;0.80;;;;;;;;;;5093243;28;20480;-87
2023/01/11 14:48:27;;;;;;;0.85;0.85;;;;;;;;;;5093833;28;20040;-87
2023/01/11 14:51:04;;;;;;;1.50;1.40;;;;;;;;;;5095121;28;20048;-87
2023/01/11 14:53:35;;;;;;;0.60;0.60;;;;;;;;;;5093628;28;20059;-87
2023/01/11 14:56:02;;;;;;;1.48;0.80;;;;;;;;;;5093506;28;20051;-87
2023/01/11 14:58:30;;;;;;;4.07;0.70;;;;;;;;;;5093560;28;20097;-87
2023/01/11 15:00:57;;;;;;;0.77;0.70;;;;;;;;;;5093824;28;20058;-88
2023/01/11 15:03:30;;;;;;;2.42;0.93;;;;;;;;;;5093507;28;20058;-87
2023/01/11 15:06:00;;;;;;;0.50;0.50;;;;;;;;;;5093399;28;20065;-87
2023/01/11 15:08:47;;;;;;;0.60;0.60;;;;;;;;;;5093229;28;20048;-87
2023/01/11 15:11:31;;;;;;;0.80;0.80;;;;;;;;;;5093315;28;20048;-88
2023/01/11 15:14:14;;;;;;;1.13;1.13;;;;;;;;;;5093148;28;20071;-87
2023/01/11 15:19:33;;;;;;;0.80;0.80;;;;;;;;;;5094069;28;20044;-88
2023/01/11 15:22:02;;;;;;;1.65;0.80;;;;;;;;;;5093160;28;20474;-88
2023/01/11 15:24:35;;;;;;;0.73;0.73;;;;;;;;;;5093980;28;20059;-87
2023/01/11 15:27:02;;;;;;;1.70;0.80;;;;;;;;;;5092818;28;20054;-88
2023/01/11 15:29:41;;;;;;;2.17;1.48;;;;;;;;;;5093119;28;20476;-88
2023/01/11 15:32:17;;;;;;;1.33;1.33;;;;;;;;;;5093961;28;20122;-88
2023/01/11 15:34:46;;;;;;;3.50;0.98;;;;;;;;;;5092714;28;20052;-88
2023/01/11 15:37:32;;;;;;;4.32;1.20;;;;;;;;;;5093022;28;20142;-88
2023/01/11 15:40:16;;;;;;;2.25;1.55;;;;;;;;;;5092635;28;20548;-88
2023/01/11 15:43:03;;;;;;;3.33;1.95;;;;;;;;;;5092874;28;20048;-87